sensor_id;sensor_type;location;lat;lon;timestamp;P1;durP1;ratioP1;P2;durP2;ratioP2
70388;SDS011;58659;49.050;8.530;2023-03-03T00:01:32;34.67;;;11.93;;
70388;SDS011;58659;49.050;8.530;2023-03-03T00:03:57;35.17;;;12.37;;
70388;SDS011;58659;49.050;8.530;2023-03-03T00:06:23;43.90;;;12.83;;
70388;SDS011;58659;49.050;8.530;2023-03-03T00:08:49;30.73;;;12.90;;
70388;SDS011;58659;49.050;8.530;2023-03-03T00:11:15;35.23;;;12.03;;
70388;SDS011;58659;49.050;8.530;2023-03-03T00:18:50;32.37;;;12.60;;
70388;SDS011;58659;49.050;8.530;2023-03-03T00:21:24;30.53;;;10.77;;
70388;SDS011;58659;49.050;8.530;2023-03-03T00:23:53;30.27;;;10.83;;
70388;SDS011;58659;49.050;8.530;2023-03-03T00:26:28;34.13;;;11.63;;
70388;SDS011;58659;49.050;8.530;2023-03-03T00:28:58;29.20;;;10.33;;
70388;SDS011;58659;49.050;8.530;2023-03-03T00:31:28;29.50;;;10.87;;
70388;SDS011;58659;49.050;8.530;2023-03-03T00:34:00;34.83;;;12.20;;
70388;SDS011;58659;49.050;8.530;2023-03-03T00:37:09;33.97;;;11.83;;
70388;SDS011;58659;49.050;8.530;2023-03-03T00:39:49;26.70;;;10.13;;
70388;SDS011;58659;49.050;8.530;2023-03-03T00:42:15;32.20;;;10.33;;
70388;SDS011;58659;49.050;8.530;2023-03-03T00:44:42;30.10;;;10.80;;
70388;SDS011;58659;49.050;8.530;2023-03-03T00:49:54;26.83;;;9.43;;
70388;SDS011;58659;49.050;8.530;2023-03-03T00:52:45;25.17;;;8.27;;
70388;SDS011;58659;49.050;8.530;2023-03-03T00:55:23;26.53;;;8.20;;
70388;SDS011;58659;49.050;8.530;2023-03-03T00:57:48;25.33;;;9.53;;
70388;SDS011;58659;49.050;8.530;2023-03-03T01:00:13;33.10;;;10.80;;
70388;SDS011;58659;49.050;8.530;2023-03-03T01:02:39;27.90;;;9.83;;
70388;SDS011;58659;49.050;8.530;2023-03-03T01:05:04;32.43;;;11.37;;
70388;SDS011;58659;49.050;8.530;2023-03-03T01:07:30;28.40;;;10.00;;
70388;SDS011;58659;49.050;8.530;2023-03-03T01:09:55;30.57;;;10.40;;
70388;SDS011;58659;49.050;8.530;2023-03-03T01:12:20;28.90;;;10.17;;
70388;SDS011;58659;49.050;8.530;2023-03-03T01:14:47;27.20;;;10.37;;
70388;SDS011;58659;49.050;8.530;2023-03-03T01:17:13;28.27;;;8.90;;
70388;SDS011;58659;49.050;8.530;2023-03-03T01:19:38;38.27;;;10.93;;
70388;SDS011;58659;49.050;8.530;2023-03-03T01:22:03;21.67;;;8.37;;
70388;SDS011;58659;49.050;8.530;2023-03-03T01:24:29;32.70;;;9.00;;
70388;SDS011;58659;49.050;8.530;2023-03-03T01:26:55;30.47;;;9.23;;
70388;SDS011;58659;49.050;8.530;2023-03-03T01:29:20;22.00;;;8.33;;
70388;SDS011;58659;49.050;8.530;2023-03-03T01:31:46;32.30;;;9.67;;
70388;SDS011;58659;49.050;8.530;2023-03-03T01:34:11;35.10;;;9.77;;
70388;SDS011;58659;49.050;8.530;2023-03-03T01:36:36;27.73;;;9.57;;
70388;SDS011;58659;49.050;8.530;2023-03-03T01:39:02;41.37;;;10.97;;
70388;SDS011;58659;49.050;8.530;2023-03-03T01:41:28;27.87;;;8.77;;
70388;SDS011;58659;49.050;8.530;2023-03-03T01:43:56;33.40;;;10.50;;
70388;SDS011;58659;49.050;8.530;2023-03-03T01:49:16;23.50;;;9.07;;
70388;SDS011;58659;49.050;8.530;2023-03-03T01:51:51;30.63;;;9.50;;
70388;SDS011;58659;49.050;8.530;2023-03-03T01:54:29;27.23;;;8.63;;
70388;SDS011;58659;49.050;8.530;2023-03-03T01:57:00;27.93;;;9.23;;
70388;SDS011;58659;49.050;8.530;2023-03-03T01:59:40;26.53;;;9.07;;
70388;SDS011;58659;49.050;8.530;2023-03-03T02:02:08;22.37;;;8.73;;
70388;SDS011;58659;49.050;8.530;2023-03-03T02:04:34;24.63;;;8.27;;
70388;SDS011;58659;49.050;8.530;2023-03-03T02:07:00;25.00;;;8.93;;
70388;SDS011;58659;49.050;8.530;2023-03-03T02:09:42;29.07;;;10.30;;
70388;SDS011;58659;49.050;8.530;2023-03-03T02:12:31;26.37;;;7.97;;
70388;SDS011;58659;49.050;8.530;2023-03-03T02:14:59;29.87;;;9.80;;
70388;SDS011;58659;49.050;8.530;2023-03-03T02:17:25;28.53;;;8.67;;
70388;SDS011;58659;49.050;8.530;2023-03-03T02:19:51;24.33;;;8.73;;
70388;SDS011;58659;49.050;8.530;2023-03-03T02:22:29;33.60;;;8.90;;
70388;SDS011;58659;49.050;8.530;2023-03-03T02:25:01;36.60;;;9.70;;
70388;SDS011;58659;49.050;8.530;2023-03-03T02:27:30;32.53;;;9.63;;
70388;SDS011;58659;49.050;8.530;2023-03-03T02:29:56;31.23;;;9.87;;
70388;SDS011;58659;49.050;8.530;2023-03-03T02:32:22;39.27;;;10.07;;
70388;SDS011;58659;49.050;8.530;2023-03-03T02:34:48;23.77;;;9.27;;
70388;SDS011;58659;49.050;8.530;2023-03-03T02:37:16;29.33;;;8.70;;
70388;SDS011;58659;49.050;8.530;2023-03-03T02:39:43;36.17;;;7.53;;
70388;SDS011;58659;49.050;8.530;2023-03-03T02:42:11;24.53;;;9.70;;
70388;SDS011;58659;49.050;8.530;2023-03-03T02:44:38;21.43;;;8.83;;
70388;SDS011;58659;49.050;8.530;2023-03-03T02:47:04;30.77;;;9.63;;
70388;SDS011;58659;49.050;8.530;2023-03-03T02:49:30;22.60;;;8.23;;
70388;SDS011;58659;49.050;8.530;2023-03-03T02:51:58;24.03;;;7.83;;
70388;SDS011;58659;49.050;8.530;2023-03-03T02:54:25;24.67;;;9.07;;
70388;SDS011;58659;49.050;8.530;2023-03-03T02:56:52;25.10;;;9.37;;
70388;SDS011;58659;49.050;8.530;2023-03-03T02:59:17;27.47;;;8.20;;
70388;SDS011;58659;49.050;8.530;2023-03-03T03:01:43;28.57;;;8.67;;
70388;SDS011;58659;49.050;8.530;2023-03-03T03:04:14;25.67;;;9.00;;
70388;SDS011;58659;49.050;8.530;2023-03-03T03:06:40;21.33;;;7.93;;
70388;SDS011;58659;49.050;8.530;2023-03-03T03:09:07;27.57;;;8.70;;
70388;SDS011;58659;49.050;8.530;2023-03-03T03:11:34;23.10;;;8.40;;
70388;SDS011;58659;49.050;8.530;2023-03-03T03:14:00;24.37;;;7.57;;
70388;SDS011;58659;49.050;8.530;2023-03-03T03:16:26;24.53;;;7.87;;
70388;SDS011;58659;49.050;8.530;2023-03-03T03:18:51;28.53;;;8.73;;
70388;SDS011;58659;49.050;8.530;2023-03-03T03:21:17;26.80;;;7.90;;
70388;SDS011;58659;49.050;8.530;2023-03-03T03:23:42;41.77;;;11.13;;
70388;SDS011;58659;49.050;8.530;2023-03-03T03:26:08;26.50;;;9.20;;
70388;SDS011;58659;49.050;8.530;2023-03-03T03:28:33;27.67;;;9.93;;
70388;SDS011;58659;49.050;8.530;2023-03-03T03:30:59;24.67;;;9.63;;
70388;SDS011;58659;49.050;8.530;2023-03-03T03:33:25;20.13;;;8.40;;
70388;SDS011;58659;49.050;8.530;2023-03-03T03:35:52;27.83;;;7.83;;
70388;SDS011;58659;49.050;8.530;2023-03-03T03:38:19;24.73;;;7.70;;
70388;SDS011;58659;49.050;8.530;2023-03-03T03:40:46;28.17;;;9.03;;
70388;SDS011;58659;49.050;8.530;2023-03-03T03:43:11;22.77;;;9.00;;
70388;SDS011;58659;49.050;8.530;2023-03-03T03:45:37;22.47;;;7.77;;
70388;SDS011;58659;49.050;8.530;2023-03-03T03:48:02;21.63;;;7.97;;
70388;SDS011;58659;49.050;8.530;2023-03-03T03:50:28;32.70;;;10.33;;
70388;SDS011;58659;49.050;8.530;2023-03-03T03:52:54;19.30;;;7.80;;
70388;SDS011;58659;49.050;8.530;2023-03-03T03:55:19;23.17;;;8.43;;
70388;SDS011;58659;49.050;8.530;2023-03-03T03:57:46;20.50;;;8.20;;
70388;SDS011;58659;49.050;8.530;2023-03-03T04:00:12;24.13;;;8.47;;
70388;SDS011;58659;49.050;8.530;2023-03-03T04:02:38;24.13;;;8.47;;
70388;SDS011;58659;49.050;8.530;2023-03-03T04:05:03;21.87;;;8.00;;
70388;SDS011;58659;49.050;8.530;2023-03-03T04:07:29;24.90;;;8.87;;
70388;SDS011;58659;49.050;8.530;2023-03-03T04:09:54;29.37;;;8.30;;
70388;SDS011;58659;49.050;8.530;2023-03-03T04:12:20;23.27;;;8.77;;
70388;SDS011;58659;49.050;8.530;2023-03-03T04:14:45;27.67;;;7.87;;
70388;SDS011;58659;49.050;8.530;2023-03-03T04:17:20;20.77;;;8.43;;
70388;SDS011;58659;49.050;8.530;2023-03-03T04:19:48;28.33;;;9.40;;
70388;SDS011;58659;49.050;8.530;2023-03-03T04:22:14;27.23;;;9.13;;
70388;SDS011;58659;49.050;8.530;2023-03-03T04:24:39;27.43;;;8.97;;
70388;SDS011;58659;49.050;8.530;2023-03-03T04:27:05;23.70;;;8.47;;
70388;SDS011;58659;49.050;8.530;2023-03-03T04:29:30;24.70;;;9.47;;
70388;SDS011;58659;49.050;8.530;2023-03-03T04:31:56;23.90;;;7.83;;
70388;SDS011;58659;49.050;8.530;2023-03-03T04:34:21;27.90;;;9.70;;
70388;SDS011;58659;49.050;8.530;2023-03-03T04:36:47;27.70;;;9.00;;
70388;SDS011;58659;49.050;8.530;2023-03-03T04:39:12;23.37;;;9.00;;
70388;SDS011;58659;49.050;8.530;2023-03-03T04:41:37;25.80;;;8.90;;
70388;SDS011;58659;49.050;8.530;2023-03-03T04:44:03;22.40;;;8.97;;
70388;SDS011;58659;49.050;8.530;2023-03-03T04:46:28;29.50;;;8.23;;
70388;SDS011;58659;49.050;8.530;2023-03-03T04:48:53;29.27;;;8.80;;
70388;SDS011;58659;49.050;8.530;2023-03-03T04:51:19;26.77;;;10.53;;
70388;SDS011;58659;49.050;8.530;2023-03-03T04:53:53;31.50;;;9.43;;
70388;SDS011;58659;49.050;8.530;2023-03-03T04:56:18;22.57;;;8.17;;
70388;SDS011;58659;49.050;8.530;2023-03-03T04:58:44;21.27;;;7.70;;
70388;SDS011;58659;49.050;8.530;2023-03-03T05:01:11;29.73;;;8.20;;
70388;SDS011;58659;49.050;8.530;2023-03-03T05:03:38;21.97;;;6.70;;
70388;SDS011;58659;49.050;8.530;2023-03-03T05:06:04;17.03;;;6.33;;
70388;SDS011;58659;49.050;8.530;2023-03-03T05:08:30;20.30;;;8.47;;
70388;SDS011;58659;49.050;8.530;2023-03-03T05:10:55;23.97;;;8.67;;
70388;SDS011;58659;49.050;8.530;2023-03-03T05:13:21;27.97;;;7.60;;
70388;SDS011;58659;49.050;8.530;2023-03-03T05:15:50;26.37;;;8.67;;
70388;SDS011;58659;49.050;8.530;2023-03-03T05:18:19;23.00;;;8.27;;
70388;SDS011;58659;49.050;8.530;2023-03-03T05:20:45;23.97;;;8.20;;
70388;SDS011;58659;49.050;8.530;2023-03-03T05:23:11;21.70;;;7.93;;
70388;SDS011;58659;49.050;8.530;2023-03-03T05:25:36;28.77;;;9.90;;
70388;SDS011;58659;49.050;8.530;2023-03-03T05:28:03;25.23;;;8.70;;
70388;SDS011;58659;49.050;8.530;2023-03-03T05:30:29;24.63;;;9.43;;
70388;SDS011;58659;49.050;8.530;2023-03-03T05:32:54;32.93;;;8.87;;
70388;SDS011;58659;49.050;8.530;2023-03-03T05:35:19;30.60;;;8.70;;
70388;SDS011;58659;49.050;8.530;2023-03-03T05:37:45;22.00;;;7.47;;
70388;SDS011;58659;49.050;8.530;2023-03-03T05:40:12;31.53;;;9.73;;
70388;SDS011;58659;49.050;8.530;2023-03-03T05:42:38;26.70;;;7.77;;
70388;SDS011;58659;49.050;8.530;2023-03-03T05:45:04;26.83;;;9.07;;
70388;SDS011;58659;49.050;8.530;2023-03-03T05:47:30;24.37;;;8.83;;
70388;SDS011;58659;49.050;8.530;2023-03-03T05:49:55;25.93;;;8.47;;
70388;SDS011;58659;49.050;8.530;2023-03-03T05:52:21;21.53;;;7.47;;
70388;SDS011;58659;49.050;8.530;2023-03-03T05:54:48;24.03;;;7.93;;
70388;SDS011;58659;49.050;8.530;2023-03-03T05:57:14;25.90;;;8.60;;
70388;SDS011;58659;49.050;8.530;2023-03-03T05:59:39;24.40;;;8.37;;
70388;SDS011;58659;49.050;8.530;2023-03-03T06:02:05;25.80;;;9.00;;
70388;SDS011;58659;49.050;8.530;2023-03-03T06:04:31;20.67;;;6.90;;
70388;SDS011;58659;49.050;8.530;2023-03-03T06:06:56;17.87;;;7.57;;
70388;SDS011;58659;49.050;8.530;2023-03-03T06:09:22;28.63;;;7.80;;
70388;SDS011;58659;49.050;8.530;2023-03-03T06:11:47;25.27;;;8.73;;
70388;SDS011;58659;49.050;8.530;2023-03-03T06:14:12;20.00;;;7.57;;
70388;SDS011;58659;49.050;8.530;2023-03-03T06:16:38;21.73;;;8.77;;
70388;SDS011;58659;49.050;8.530;2023-03-03T06:19:03;22.07;;;7.47;;
70388;SDS011;58659;49.050;8.530;2023-03-03T06:21:28;20.67;;;6.60;;
70388;SDS011;58659;49.050;8.530;2023-03-03T06:23:54;21.47;;;7.53;;
70388;SDS011;58659;49.050;8.530;2023-03-03T06:26:19;22.87;;;7.83;;
70388;SDS011;58659;49.050;8.530;2023-03-03T06:28:44;22.17;;;7.73;;
70388;SDS011;58659;49.050;8.530;2023-03-03T06:31:10;27.77;;;8.93;;
70388;SDS011;58659;49.050;8.530;2023-03-03T06:33:35;22.30;;;8.23;;
70388;SDS011;58659;49.050;8.530;2023-03-03T06:36:02;32.57;;;8.37;;
70388;SDS011;58659;49.050;8.530;2023-03-03T06:38:27;27.03;;;8.00;;
70388;SDS011;58659;49.050;8.530;2023-03-03T06:40:53;27.13;;;8.30;;
70388;SDS011;58659;49.050;8.530;2023-03-03T06:43:18;24.97;;;8.40;;
70388;SDS011;58659;49.050;8.530;2023-03-03T06:45:44;26.70;;;9.30;;
70388;SDS011;58659;49.050;8.530;2023-03-03T06:48:09;24.67;;;6.57;;
70388;SDS011;58659;49.050;8.530;2023-03-03T06:50:35;24.77;;;8.57;;
70388;SDS011;58659;49.050;8.530;2023-03-03T06:53:10;21.47;;;8.40;;
70388;SDS011;58659;49.050;8.530;2023-03-03T06:55:36;19.20;;;6.80;;
70388;SDS011;58659;49.050;8.530;2023-03-03T06:58:04;23.77;;;7.33;;
70388;SDS011;58659;49.050;8.530;2023-03-03T07:00:34;23.47;;;7.90;;
70388;SDS011;58659;49.050;8.530;2023-03-03T07:03:16;23.73;;;8.27;;
70388;SDS011;58659;49.050;8.530;2023-03-03T07:05:42;21.70;;;6.60;;
70388;SDS011;58659;49.050;8.530;2023-03-03T07:08:12;22.93;;;6.07;;
70388;SDS011;58659;49.050;8.530;2023-03-03T07:10:48;17.17;;;5.93;;
70388;SDS011;58659;49.050;8.530;2023-03-03T07:13:16;18.47;;;6.50;;
70388;SDS011;58659;49.050;8.530;2023-03-03T07:15:43;17.13;;;5.33;;
70388;SDS011;58659;49.050;8.530;2023-03-03T07:20:58;22.10;;;7.30;;
70388;SDS011;58659;49.050;8.530;2023-03-03T07:23:25;18.53;;;5.90;;
70388;SDS011;58659;49.050;8.530;2023-03-03T07:25:52;19.10;;;7.30;;
70388;SDS011;58659;49.050;8.530;2023-03-03T07:30:46;15.40;;;5.67;;
70388;SDS011;58659;49.050;8.530;2023-03-03T07:33:23;14.77;;;6.63;;
70388;SDS011;58659;49.050;8.530;2023-03-03T07:35:52;14.83;;;5.63;;
70388;SDS011;58659;49.050;8.530;2023-03-03T07:41:05;22.30;;;6.37;;
70388;SDS011;58659;49.050;8.530;2023-03-03T07:43:37;16.83;;;5.20;;
70388;SDS011;58659;49.050;8.530;2023-03-03T07:48:36;19.40;;;6.30;;
70388;SDS011;58659;49.050;8.530;2023-03-03T07:51:10;24.73;;;7.63;;
70388;SDS011;58659;49.050;8.530;2023-03-03T07:53:47;18.50;;;6.17;;
70388;SDS011;58659;49.050;8.530;2023-03-03T07:56:16;18.70;;;5.73;;
70388;SDS011;58659;49.050;8.530;2023-03-03T07:58:50;17.77;;;6.77;;
70388;SDS011;58659;49.050;8.530;2023-03-03T08:04:08;19.53;;;6.53;;
70388;SDS011;58659;49.050;8.530;2023-03-03T08:06:47;15.30;;;5.27;;
70388;SDS011;58659;49.050;8.530;2023-03-03T08:11:52;19.60;;;5.97;;
70388;SDS011;58659;49.050;8.530;2023-03-03T08:14:26;14.90;;;7.27;;
70388;SDS011;58659;49.050;8.530;2023-03-03T08:16:54;22.43;;;7.57;;
70388;SDS011;58659;49.050;8.530;2023-03-03T08:19:20;22.30;;;6.87;;
70388;SDS011;58659;49.050;8.530;2023-03-03T08:21:46;25.43;;;8.03;;
70388;SDS011;58659;49.050;8.530;2023-03-03T08:24:11;20.03;;;7.20;;
70388;SDS011;58659;49.050;8.530;2023-03-03T08:26:37;16.40;;;6.17;;
70388;SDS011;58659;49.050;8.530;2023-03-03T08:29:02;21.50;;;6.97;;
70388;SDS011;58659;49.050;8.530;2023-03-03T08:31:27;13.77;;;6.30;;
70388;SDS011;58659;49.050;8.530;2023-03-03T08:33:53;13.30;;;5.83;;
70388;SDS011;58659;49.050;8.530;2023-03-03T08:36:18;14.60;;;5.97;;
70388;SDS011;58659;49.050;8.530;2023-03-03T08:38:44;20.03;;;5.37;;
70388;SDS011;58659;49.050;8.530;2023-03-03T08:41:09;22.20;;;6.73;;
70388;SDS011;58659;49.050;8.530;2023-03-03T08:43:35;23.10;;;8.20;;
70388;SDS011;58659;49.050;8.530;2023-03-03T08:46:01;22.17;;;7.10;;
70388;SDS011;58659;49.050;8.530;2023-03-03T08:48:29;26.50;;;7.73;;
70388;SDS011;58659;49.050;8.530;2023-03-03T08:50:55;19.43;;;6.90;;
70388;SDS011;58659;49.050;8.530;2023-03-03T08:53:21;19.00;;;7.37;;
70388;SDS011;58659;49.050;8.530;2023-03-03T08:55:47;20.00;;;6.37;;
70388;SDS011;58659;49.050;8.530;2023-03-03T08:58:12;23.17;;;7.73;;
70388;SDS011;58659;49.050;8.530;2023-03-03T09:00:39;27.70;;;8.23;;
70388;SDS011;58659;49.050;8.530;2023-03-03T09:03:05;20.27;;;7.23;;
70388;SDS011;58659;49.050;8.530;2023-03-03T09:05:31;18.17;;;6.57;;
70388;SDS011;58659;49.050;8.530;2023-03-03T09:07:57;17.80;;;5.60;;
70388;SDS011;58659;49.050;8.530;2023-03-03T09:10:24;19.10;;;7.17;;
70388;SDS011;58659;49.050;8.530;2023-03-03T09:12:55;18.30;;;7.33;;
70388;SDS011;58659;49.050;8.530;2023-03-03T09:15:29;18.97;;;6.73;;
70388;SDS011;58659;49.050;8.530;2023-03-03T09:18:12;16.73;;;6.17;;
70388;SDS011;58659;49.050;8.530;2023-03-03T09:20:49;20.87;;;5.97;;
70388;SDS011;58659;49.050;8.530;2023-03-03T09:28:35;21.20;;;7.17;;
70388;SDS011;58659;49.050;8.530;2023-03-03T09:31:02;4.50;;;2.60;;
70388;SDS011;58659;49.050;8.530;2023-03-03T09:33:41;22.93;;;7.10;;
70388;SDS011;58659;49.050;8.530;2023-03-03T09:38:44;21.40;;;6.43;;
70388;SDS011;58659;49.050;8.530;2023-03-03T09:52:25;12.67;;;4.93;;
70388;SDS011;58659;49.050;8.530;2023-03-03T10:06:36;6.37;;;4.00;;
70388;SDS011;58659;49.050;8.530;2023-03-03T10:17:31;13.47;;;4.83;;
70388;SDS011;58659;49.050;8.530;2023-03-03T10:36:48;4.43;;;1.70;;
70388;SDS011;58659;49.050;8.530;2023-03-03T10:39:28;6.80;;;3.03;;
70388;SDS011;58659;49.050;8.530;2023-03-03T10:50:18;12.63;;;4.67;;
70388;SDS011;58659;49.050;8.530;2023-03-03T10:52:53;12.13;;;4.37;;
70388;SDS011;58659;49.050;8.530;2023-03-03T10:55:35;19.43;;;5.93;;
70388;SDS011;58659;49.050;8.530;2023-03-03T10:58:21;9.43;;;3.53;;
70388;SDS011;58659;49.050;8.530;2023-03-03T11:06:17;9.07;;;3.67;;
70388;SDS011;58659;49.050;8.530;2023-03-03T11:11:29;12.50;;;4.10;;
70388;SDS011;58659;49.050;8.530;2023-03-03T11:22:14;14.63;;;4.93;;
70388;SDS011;58659;49.050;8.530;2023-03-03T11:27:59;10.90;;;4.30;;
70388;SDS011;58659;49.050;8.530;2023-03-03T11:33:08;12.63;;;3.83;;
70388;SDS011;58659;49.050;8.530;2023-03-03T11:36:06;11.67;;;3.73;;
70388;SDS011;58659;49.050;8.530;2023-03-03T11:47:27;12.73;;;4.60;;
70388;SDS011;58659;49.050;8.530;2023-03-03T11:52:56;12.43;;;4.13;;
70388;SDS011;58659;49.050;8.530;2023-03-03T11:58:02;13.10;;;4.03;;
70388;SDS011;58659;49.050;8.530;2023-03-03T12:03:25;9.83;;;3.90;;
70388;SDS011;58659;49.050;8.530;2023-03-03T12:11:14;12.13;;;4.37;;
70388;SDS011;58659;49.050;8.530;2023-03-03T12:14:24;9.80;;;3.70;;
70388;SDS011;58659;49.050;8.530;2023-03-03T12:19:46;14.87;;;4.57;;
70388;SDS011;58659;49.050;8.530;2023-03-03T12:36:18;13.50;;;4.30;;
70388;SDS011;58659;49.050;8.530;2023-03-03T12:38:55;11.13;;;4.60;;
70388;SDS011;58659;49.050;8.530;2023-03-03T12:41:38;13.07;;;3.70;;
70388;SDS011;58659;49.050;8.530;2023-03-03T12:44:20;12.90;;;4.47;;
70388;SDS011;58659;49.050;8.530;2023-03-03T12:49:29;8.23;;;3.20;;
70388;SDS011;58659;49.050;8.530;2023-03-03T12:52:04;12.80;;;4.43;;
70388;SDS011;58659;49.050;8.530;2023-03-03T12:57:54;10.13;;;4.13;;
70388;SDS011;58659;49.050;8.530;2023-03-03T13:05:44;10.13;;;4.70;;
70388;SDS011;58659;49.050;8.530;2023-03-03T13:08:18;15.03;;;4.53;;
70388;SDS011;58659;49.050;8.530;2023-03-03T13:13:59;11.27;;;4.10;;
70388;SDS011;58659;49.050;8.530;2023-03-03T13:16:37;8.33;;;4.40;;
70388;SDS011;58659;49.050;8.530;2023-03-03T13:19:15;14.03;;;3.93;;
70388;SDS011;58659;49.050;8.530;2023-03-03T13:26:57;18.53;;;4.50;;
70388;SDS011;58659;49.050;8.530;2023-03-03T13:31:59;11.37;;;4.07;;
70388;SDS011;58659;49.050;8.530;2023-03-03T13:37:31;13.43;;;4.97;;
70388;SDS011;58659;49.050;8.530;2023-03-03T13:40:05;11.87;;;4.63;;
70388;SDS011;58659;49.050;8.530;2023-03-03T13:42:52;8.93;;;3.73;;
70388;SDS011;58659;49.050;8.530;2023-03-03T13:51:30;15.23;;;4.50;;
70388;SDS011;58659;49.050;8.530;2023-03-03T14:04:46;8.83;;;4.60;;
70388;SDS011;58659;49.050;8.530;2023-03-03T14:17:33;9.53;;;3.67;;
70388;SDS011;58659;49.050;8.530;2023-03-03T14:20:30;13.57;;;3.87;;
70388;SDS011;58659;49.050;8.530;2023-03-03T14:23:00;12.77;;;5.37;;
70388;SDS011;58659;49.050;8.530;2023-03-03T14:25:49;14.27;;;4.53;;
70388;SDS011;58659;49.050;8.530;2023-03-03T14:28:19;11.77;;;4.27;;
70388;SDS011;58659;49.050;8.530;2023-03-03T14:30:46;7.63;;;4.33;;
70388;SDS011;58659;49.050;8.530;2023-03-03T14:40:47;15.80;;;4.17;;
70388;SDS011;58659;49.050;8.530;2023-03-03T14:43:18;12.37;;;5.20;;
70388;SDS011;58659;49.050;8.530;2023-03-03T14:45:45;13.17;;;4.50;;
70388;SDS011;58659;49.050;8.530;2023-03-03T14:48:23;14.40;;;6.47;;
70388;SDS011;58659;49.050;8.530;2023-03-03T14:56:21;16.40;;;5.07;;
70388;SDS011;58659;49.050;8.530;2023-03-03T14:58:53;13.90;;;5.33;;
70388;SDS011;58659;49.050;8.530;2023-03-03T15:01:36;13.27;;;4.77;;
70388;SDS011;58659;49.050;8.530;2023-03-03T15:09:18;14.80;;;4.50;;
70388;SDS011;58659;49.050;8.530;2023-03-03T15:11:58;11.90;;;4.10;;
70388;SDS011;58659;49.050;8.530;2023-03-03T15:14:37;13.13;;;4.67;;
70388;SDS011;58659;49.050;8.530;2023-03-03T15:17:18;15.93;;;4.37;;
70388;SDS011;58659;49.050;8.530;2023-03-03T15:25:31;12.77;;;4.40;;
70388;SDS011;58659;49.050;8.530;2023-03-03T15:36:09;13.93;;;4.17;;
70388;SDS011;58659;49.050;8.530;2023-03-03T15:49:01;12.03;;;4.47;;
70388;SDS011;58659;49.050;8.530;2023-03-03T15:55:00;5.27;;;2.23;;
70388;SDS011;58659;49.050;8.530;2023-03-03T16:00:33;16.43;;;5.67;;
70388;SDS011;58659;49.050;8.530;2023-03-03T16:06:14;13.70;;;5.53;;
70388;SDS011;58659;49.050;8.530;2023-03-03T16:29:51;14.27;;;5.83;;
70388;SDS011;58659;49.050;8.530;2023-03-03T16:32:20;13.87;;;5.67;;
70388;SDS011;58659;49.050;8.530;2023-03-03T16:35:02;15.47;;;5.47;;
70388;SDS011;58659;49.050;8.530;2023-03-03T16:37:36;12.67;;;5.27;;
70388;SDS011;58659;49.050;8.530;2023-03-03T16:40:25;18.30;;;5.20;;
70388;SDS011;58659;49.050;8.530;2023-03-03T16:45:41;14.07;;;5.73;;
70388;SDS011;58659;49.050;8.530;2023-03-03T16:53:16;15.77;;;5.60;;
70388;SDS011;58659;49.050;8.530;2023-03-03T16:55:49;14.03;;;4.97;;
70388;SDS011;58659;49.050;8.530;2023-03-03T17:01:14;18.43;;;6.03;;
70388;SDS011;58659;49.050;8.530;2023-03-03T17:20:46;11.83;;;4.23;;
70388;SDS011;58659;49.050;8.530;2023-03-03T17:23:37;14.67;;;4.90;;
70388;SDS011;58659;49.050;8.530;2023-03-03T17:31:57;16.43;;;5.77;;
70388;SDS011;58659;49.050;8.530;2023-03-03T17:37:38;11.67;;;5.37;;
70388;SDS011;58659;49.050;8.530;2023-03-03T17:45:38;14.03;;;5.13;;
70388;SDS011;58659;49.050;8.530;2023-03-03T17:51:14;10.20;;;4.53;;
70388;SDS011;58659;49.050;8.530;2023-03-03T18:05:32;18.60;;;4.73;;
70388;SDS011;58659;49.050;8.530;2023-03-03T18:08:07;15.10;;;5.10;;
70388;SDS011;58659;49.050;8.530;2023-03-03T18:10:51;13.07;;;5.13;;
70388;SDS011;58659;49.050;8.530;2023-03-03T18:16:29;14.90;;;4.27;;
70388;SDS011;58659;49.050;8.530;2023-03-03T18:19:16;18.10;;;5.67;;
70388;SDS011;58659;49.050;8.530;2023-03-03T18:26:49;14.63;;;5.13;;
70388;SDS011;58659;49.050;8.530;2023-03-03T18:42:31;12.93;;;4.53;;
70388;SDS011;58659;49.050;8.530;2023-03-03T18:45:08;16.33;;;5.63;;
70388;SDS011;58659;49.050;8.530;2023-03-03T18:55:50;12.23;;;4.27;;
70388;SDS011;58659;49.050;8.530;2023-03-03T18:58:36;16.77;;;4.37;;
70388;SDS011;58659;49.050;8.530;2023-03-03T19:01:11;10.87;;;4.73;;
70388;SDS011;58659;49.050;8.530;2023-03-03T19:09:07;21.73;;;6.33;;
70388;SDS011;58659;49.050;8.530;2023-03-03T19:11:39;19.07;;;5.97;;
70388;SDS011;58659;49.050;8.530;2023-03-03T19:16:41;17.10;;;5.90;;
70388;SDS011;58659;49.050;8.530;2023-03-03T19:19:11;15.20;;;6.33;;
70388;SDS011;58659;49.050;8.530;2023-03-03T19:21:38;12.13;;;4.70;;
70388;SDS011;58659;49.050;8.530;2023-03-03T19:26:55;12.60;;;5.20;;
70388;SDS011;58659;49.050;8.530;2023-03-03T19:32:16;13.43;;;5.03;;
70388;SDS011;58659;49.050;8.530;2023-03-03T19:37:50;10.20;;;4.37;;
70388;SDS011;58659;49.050;8.530;2023-03-03T19:54:48;10.90;;;4.50;;
70388;SDS011;58659;49.050;8.530;2023-03-03T20:00:06;9.37;;;3.87;;
70388;SDS011;58659;49.050;8.530;2023-03-03T20:02:55;10.47;;;4.10;;
70388;SDS011;58659;49.050;8.530;2023-03-03T20:08:08;10.27;;;3.70;;
70388;SDS011;58659;49.050;8.530;2023-03-03T20:26:49;9.57;;;3.83;;
70388;SDS011;58659;49.050;8.530;2023-03-03T20:37:25;9.63;;;3.60;;
70388;SDS011;58659;49.050;8.530;2023-03-03T20:40:07;8.90;;;3.03;;
70388;SDS011;58659;49.050;8.530;2023-03-03T20:48:39;9.80;;;3.87;;
70388;SDS011;58659;49.050;8.530;2023-03-03T21:04:49;9.70;;;3.23;;
70388;SDS011;58659;49.050;8.530;2023-03-03T21:07:32;10.27;;;2.70;;
70388;SDS011;58659;49.050;8.530;2023-03-03T21:10:08;7.60;;;3.37;;
70388;SDS011;58659;49.050;8.530;2023-03-03T21:12:39;10.43;;;4.53;;
70388;SDS011;58659;49.050;8.530;2023-03-03T21:15:11;14.50;;;3.80;;
70388;SDS011;58659;49.050;8.530;2023-03-03T21:17:56;10.13;;;3.90;;
70388;SDS011;58659;49.050;8.530;2023-03-03T21:20:27;12.27;;;5.33;;
70388;SDS011;58659;49.050;8.530;2023-03-03T21:22:53;14.47;;;4.67;;
70388;SDS011;58659;49.050;8.530;2023-03-03T21:28:13;12.87;;;5.00;;
70388;SDS011;58659;49.050;8.530;2023-03-03T21:33:52;13.13;;;5.30;;
70388;SDS011;58659;49.050;8.530;2023-03-03T21:38:44;13.33;;;5.07;;
70388;SDS011;58659;49.050;8.530;2023-03-03T21:41:12;10.90;;;4.87;;
70388;SDS011;58659;49.050;8.530;2023-03-03T21:43:39;12.93;;;4.00;;
70388;SDS011;58659;49.050;8.530;2023-03-03T21:46:09;13.60;;;5.00;;
70388;SDS011;58659;49.050;8.530;2023-03-03T21:48:38;13.37;;;5.20;;
70388;SDS011;58659;49.050;8.530;2023-03-03T21:51:04;10.13;;;3.93;;
70388;SDS011;58659;49.050;8.530;2023-03-03T21:53:29;12.00;;;4.03;;
70388;SDS011;58659;49.050;8.530;2023-03-03T21:55:58;12.97;;;4.83;;
70388;SDS011;58659;49.050;8.530;2023-03-03T21:58:24;12.90;;;4.57;;
70388;SDS011;58659;49.050;8.530;2023-03-03T22:00:49;15.80;;;5.77;;
70388;SDS011;58659;49.050;8.530;2023-03-03T22:03:14;16.60;;;5.27;;
70388;SDS011;58659;49.050;8.530;2023-03-03T22:05:40;17.27;;;5.53;;
70388;SDS011;58659;49.050;8.530;2023-03-03T22:08:06;17.57;;;5.33;;
70388;SDS011;58659;49.050;8.530;2023-03-03T22:10:31;11.10;;;4.87;;
70388;SDS011;58659;49.050;8.530;2023-03-03T22:12:57;13.43;;;4.83;;
70388;SDS011;58659;49.050;8.530;2023-03-03T22:15:22;15.63;;;4.77;;
70388;SDS011;58659;49.050;8.530;2023-03-03T22:17:47;11.40;;;4.73;;
70388;SDS011;58659;49.050;8.530;2023-03-03T22:20:13;15.00;;;4.80;;
70388;SDS011;58659;49.050;8.530;2023-03-03T22:22:39;17.77;;;5.50;;